sensor_id;sensor_type;location;lat;lon;timestamp;temperature;humidity
8095;DHT22;4090;49.270;8.696;2023-05-07T00:02:12;20.40;98.50
8095;DHT22;4090;49.270;8.696;2023-05-07T00:04:54;20.40;98.70
8095;DHT22;4090;49.270;8.696;2023-05-07T00:07:36;20.40;98.90
8095;DHT22;4090;49.270;8.696;2023-05-07T00:10:19;20.30;98.90
8095;DHT22;4090;49.270;8.696;2023-05-07T00:13:01;20.30;98.70
8095;DHT22;4090;49.270;8.696;2023-05-07T00:15:43;20.30;98.70
8095;DHT22;4090;49.270;8.696;2023-05-07T00:18:24;20.30;98.50
8095;DHT22;4090;49.270;8.696;2023-05-07T00:21:06;20.30;98.30
8095;DHT22;4090;49.270;8.696;2023-05-07T00:23:48;20.30;98.40
8095;DHT22;4090;49.270;8.696;2023-05-07T00:26:31;20.30;98.30
8095;DHT22;4090;49.270;8.696;2023-05-07T00:29:13;20.30;98.30
8095;DHT22;4090;49.270;8.696;2023-05-07T00:31:55;20.20;98.60
8095;DHT22;4090;49.270;8.696;2023-05-07T00:34:37;20.20;98.60
8095;DHT22;4090;49.270;8.696;2023-05-07T00:37:20;20.20;98.40
8095;DHT22;4090;49.270;8.696;2023-05-07T00:40:01;20.20;98.80
8095;DHT22;4090;49.270;8.696;2023-05-07T00:42:46;20.10;99.10
8095;DHT22;4090;49.270;8.696;2023-05-07T00:45:29;20.10;99.10
8095;DHT22;4090;49.270;8.696;2023-05-07T00:48:11;20.00;98.80
8095;DHT22;4090;49.270;8.696;2023-05-07T00:50:53;20.00;98.80
8095;DHT22;4090;49.270;8.696;2023-05-07T00:53:35;20.00;98.80
8095;DHT22;4090;49.270;8.696;2023-05-07T00:56:17;20.00;98.80
8095;DHT22;4090;49.270;8.696;2023-05-07T00:59:01;20.00;98.70
8095;DHT22;4090;49.270;8.696;2023-05-07T01:01:43;20.00;98.80
8095;DHT22;4090;49.270;8.696;2023-05-07T01:04:25;20.00;98.70
8095;DHT22;4090;49.270;8.696;2023-05-07T01:07:07;20.00;98.60
8095;DHT22;4090;49.270;8.696;2023-05-07T01:09:49;20.00;98.50
8095;DHT22;4090;49.270;8.696;2023-05-07T01:12:31;20.00;98.60
8095;DHT22;4090;49.270;8.696;2023-05-07T01:15:15;20.00;99.10
8095;DHT22;4090;49.270;8.696;2023-05-07T01:17:56;20.00;98.70
8095;DHT22;4090;49.270;8.696;2023-05-07T01:20:45;20.00;98.80
8095;DHT22;4090;49.270;8.696;2023-05-07T01:23:29;19.90;98.80
8095;DHT22;4090;49.270;8.696;2023-05-07T01:26:11;19.90;98.90
8095;DHT22;4090;49.270;8.696;2023-05-07T01:28:52;19.90;98.80
8095;DHT22;4090;49.270;8.696;2023-05-07T01:31:34;19.90;98.80
8095;DHT22;4090;49.270;8.696;2023-05-07T01:34:17;19.90;98.90
8095;DHT22;4090;49.270;8.696;2023-05-07T01:37:00;20.00;98.90
8095;DHT22;4090;49.270;8.696;2023-05-07T01:39:43;19.90;98.90
8095;DHT22;4090;49.270;8.696;2023-05-07T01:42:25;19.80;98.90
8095;DHT22;4090;49.270;8.696;2023-05-07T01:45:08;19.80;99.00
8095;DHT22;4090;49.270;8.696;2023-05-07T01:47:49;19.80;98.80
8095;DHT22;4090;49.270;8.696;2023-05-07T01:50:31;19.80;99.00
8095;DHT22;4090;49.270;8.696;2023-05-07T01:53:13;19.80;98.90
8095;DHT22;4090;49.270;8.696;2023-05-07T01:55:56;19.70;99.00
8095;DHT22;4090;49.270;8.696;2023-05-07T01:58:39;19.70;99.00
8095;DHT22;4090;49.270;8.696;2023-05-07T02:01:21;19.70;99.00
8095;DHT22;4090;49.270;8.696;2023-05-07T02:04:04;19.70;99.00
8095;DHT22;4090;49.270;8.696;2023-05-07T02:06:46;19.70;99.00
8095;DHT22;4090;49.270;8.696;2023-05-07T02:09:28;19.70;99.00
8095;DHT22;4090;49.270;8.696;2023-05-07T02:12:12;19.70;98.90
8095;DHT22;4090;49.270;8.696;2023-05-07T02:14:53;19.70;99.20
8095;DHT22;4090;49.270;8.696;2023-05-07T02:17:35;19.70;99.20
8095;DHT22;4090;49.270;8.696;2023-05-07T02:20:17;19.70;99.00
8095;DHT22;4090;49.270;8.696;2023-05-07T02:22:59;19.70;98.90
8095;DHT22;4090;49.270;8.696;2023-05-07T02:25:43;19.60;99.00
8095;DHT22;4090;49.270;8.696;2023-05-07T02:28:27;19.60;99.00
8095;DHT22;4090;49.270;8.696;2023-05-07T02:31:17;19.60;98.80
8095;DHT22;4090;49.270;8.696;2023-05-07T02:33:59;19.60;98.70
8095;DHT22;4090;49.270;8.696;2023-05-07T02:36:40;19.60;98.80
8095;DHT22;4090;49.270;8.696;2023-05-07T02:39:26;19.60;98.60
8095;DHT22;4090;49.270;8.696;2023-05-07T02:42:07;19.50;98.70
8095;DHT22;4090;49.270;8.696;2023-05-07T02:44:52;19.50;98.70
8095;DHT22;4090;49.270;8.696;2023-05-07T02:47:34;19.50;99.00
8095;DHT22;4090;49.270;8.696;2023-05-07T02:50:17;19.50;99.20
8095;DHT22;4090;49.270;8.696;2023-05-07T02:52:58;19.50;99.50
8095;DHT22;4090;49.270;8.696;2023-05-07T02:55:40;19.50;99.50
8095;DHT22;4090;49.270;8.696;2023-05-07T02:58:22;19.50;99.70
8095;DHT22;4090;49.270;8.696;2023-05-07T03:01:05;19.40;99.60
8095;DHT22;4090;49.270;8.696;2023-05-07T03:03:52;19.40;99.70
8095;DHT22;4090;49.270;8.696;2023-05-07T03:06:34;19.40;99.90
8095;DHT22;4090;49.270;8.696;2023-05-07T03:09:16;19.40;99.80
8095;DHT22;4090;49.270;8.696;2023-05-07T03:11:58;19.40;99.90
8095;DHT22;4090;49.270;8.696;2023-05-07T03:14:39;19.30;99.90
8095;DHT22;4090;49.270;8.696;2023-05-07T03:17:23;19.30;99.90
8095;DHT22;4090;49.270;8.696;2023-05-07T03:20:05;19.20;99.90
8095;DHT22;4090;49.270;8.696;2023-05-07T03:22:47;19.20;99.90
8095;DHT22;4090;49.270;8.696;2023-05-07T03:25:29;19.20;99.80
8095;DHT22;4090;49.270;8.696;2023-05-07T03:28:11;19.20;99.80
8095;DHT22;4090;49.270;8.696;2023-05-07T03:30:59;19.10;99.80
8095;DHT22;4090;49.270;8.696;2023-05-07T03:33:50;19.20;99.70
8095;DHT22;4090;49.270;8.696;2023-05-07T03:36:32;19.10;99.60
8095;DHT22;4090;49.270;8.696;2023-05-07T03:39:14;19.10;99.70
8095;DHT22;4090;49.270;8.696;2023-05-07T03:41:56;19.10;99.70
8095;DHT22;4090;49.270;8.696;2023-05-07T03:44:38;19.10;99.80
8095;DHT22;4090;49.270;8.696;2023-05-07T03:47:20;19.10;99.90
8095;DHT22;4090;49.270;8.696;2023-05-07T03:50:04;19.10;99.90
8095;DHT22;4090;49.270;8.696;2023-05-07T03:52:45;19.10;99.90
8095;DHT22;4090;49.270;8.696;2023-05-07T03:55:29;19.10;99.90
8095;DHT22;4090;49.270;8.696;2023-05-07T03:58:14;19.10;99.90
8095;DHT22;4090;49.270;8.696;2023-05-07T04:00:56;19.00;99.90
8095;DHT22;4090;49.270;8.696;2023-05-07T04:03:41;19.00;99.90
8095;DHT22;4090;49.270;8.696;2023-05-07T04:06:25;19.00;99.90
8095;DHT22;4090;49.270;8.696;2023-05-07T04:09:07;19.00;99.90
8095;DHT22;4090;49.270;8.696;2023-05-07T04:11:50;18.90;99.90
8095;DHT22;4090;49.270;8.696;2023-05-07T04:14:31;19.00;99.90
8095;DHT22;4090;49.270;8.696;2023-05-07T04:17:14;18.90;99.90
8095;DHT22;4090;49.270;8.696;2023-05-07T04:19:56;18.90;99.90
8095;DHT22;4090;49.270;8.696;2023-05-07T04:22:39;18.90;99.90
8095;DHT22;4090;49.270;8.696;2023-05-07T04:25:21;18.90;99.90
8095;DHT22;4090;49.270;8.696;2023-05-07T04:28:05;18.90;99.90
8095;DHT22;4090;49.270;8.696;2023-05-07T04:30:47;18.80;99.90
8095;DHT22;4090;49.270;8.696;2023-05-07T04:33:30;18.80;99.90
8095;DHT22;4090;49.270;8.696;2023-05-07T04:36:12;18.80;99.90
8095;DHT22;4090;49.270;8.696;2023-05-07T04:39:12;18.80;99.90
8095;DHT22;4090;49.270;8.696;2023-05-07T04:41:56;18.80;99.90
8095;DHT22;4090;49.270;8.696;2023-05-07T04:44:38;18.80;99.90
8095;DHT22;4090;49.270;8.696;2023-05-07T04:47:20;18.80;99.90
8095;DHT22;4090;49.270;8.696;2023-05-07T04:50:02;18.80;99.90
8095;DHT22;4090;49.270;8.696;2023-05-07T04:52:44;18.80;99.90
8095;DHT22;4090;49.270;8.696;2023-05-07T04:55:28;18.80;99.90
8095;DHT22;4090;49.270;8.696;2023-05-07T04:58:10;18.80;99.90
8095;DHT22;4090;49.270;8.696;2023-05-07T05:00:53;18.80;99.90
8095;DHT22;4090;49.270;8.696;2023-05-07T05:03:34;18.80;99.90
8095;DHT22;4090;49.270;8.696;2023-05-07T05:06:16;18.80;99.90
8095;DHT22;4090;49.270;8.696;2023-05-07T05:08:58;18.80;99.90
8095;DHT22;4090;49.270;8.696;2023-05-07T05:11:43;18.80;99.90
8095;DHT22;4090;49.270;8.696;2023-05-07T05:14:25;18.80;99.90
8095;DHT22;4090;49.270;8.696;2023-05-07T05:17:07;18.80;99.90
8095;DHT22;4090;49.270;8.696;2023-05-07T05:19:50;18.80;99.90
8095;DHT22;4090;49.270;8.696;2023-05-07T05:22:32;18.80;99.90
8095;DHT22;4090;49.270;8.696;2023-05-07T05:25:14;18.80;99.90
8095;DHT22;4090;49.270;8.696;2023-05-07T05:27:58;18.80;99.90
8095;DHT22;4090;49.270;8.696;2023-05-07T05:30:40;18.80;99.90
8095;DHT22;4090;49.270;8.696;2023-05-07T05:33:23;18.90;99.90
8095;DHT22;4090;49.270;8.696;2023-05-07T05:36:05;18.90;99.90
8095;DHT22;4090;49.270;8.696;2023-05-07T05:38:47;18.90;99.90
8095;DHT22;4090;49.270;8.696;2023-05-07T05:41:29;18.90;99.90
8095;DHT22;4090;49.270;8.696;2023-05-07T05:44:12;18.90;99.90
8095;DHT22;4090;49.270;8.696;2023-05-07T05:46:56;18.90;99.90
8095;DHT22;4090;49.270;8.696;2023-05-07T05:49:40;18.90;99.90
8095;DHT22;4090;49.270;8.696;2023-05-07T05:52:24;18.90;99.90
8095;DHT22;4090;49.270;8.696;2023-05-07T05:55:06;18.90;99.90
8095;DHT22;4090;49.270;8.696;2023-05-07T05:57:50;18.90;99.90
8095;DHT22;4090;49.270;8.696;2023-05-07T06:00:34;18.90;99.90
8095;DHT22;4090;49.270;8.696;2023-05-07T06:03:18;18.90;99.90
8095;DHT22;4090;49.270;8.696;2023-05-07T06:06:01;18.90;99.90
8095;DHT22;4090;49.270;8.696;2023-05-07T06:08:43;19.00;99.90
8095;DHT22;4090;49.270;8.696;2023-05-07T06:11:27;19.00;99.90
8095;DHT22;4090;49.270;8.696;2023-05-07T06:14:09;19.00;99.90
8095;DHT22;4090;49.270;8.696;2023-05-07T06:16:53;19.00;99.90
8095;DHT22;4090;49.270;8.696;2023-05-07T06:19:35;19.10;99.90
8095;DHT22;4090;49.270;8.696;2023-05-07T06:22:18;19.10;99.90
8095;DHT22;4090;49.270;8.696;2023-05-07T06:24:59;19.10;99.90
8095;DHT22;4090;49.270;8.696;2023-05-07T06:27:42;19.00;99.90
8095;DHT22;4090;49.270;8.696;2023-05-07T06:30:24;19.10;99.90
8095;DHT22;4090;49.270;8.696;2023-05-07T06:33:09;19.10;99.90
8095;DHT22;4090;49.270;8.696;2023-05-07T06:35:51;19.10;99.90
8095;DHT22;4090;49.270;8.696;2023-05-07T06:38:33;19.20;99.90
8095;DHT22;4090;49.270;8.696;2023-05-07T06:41:15;19.20;99.90
8095;DHT22;4090;49.270;8.696;2023-05-07T06:43:57;19.20;99.90
8095;DHT22;4090;49.270;8.696;2023-05-07T06:46:45;19.30;99.90
8095;DHT22;4090;49.270;8.696;2023-05-07T06:49:29;19.30;99.90
8095;DHT22;4090;49.270;8.696;2023-05-07T06:52:12;19.30;99.90
8095;DHT22;4090;49.270;8.696;2023-05-07T06:54:54;19.40;99.90
8095;DHT22;4090;49.270;8.696;2023-05-07T06:57:37;19.30;99.90
8095;DHT22;4090;49.270;8.696;2023-05-07T07:00:19;19.40;99.90
8095;DHT22;4090;49.270;8.696;2023-05-07T07:03:06;19.40;99.90
8095;DHT22;4090;49.270;8.696;2023-05-07T07:05:52;19.40;99.90
8095;DHT22;4090;49.270;8.696;2023-05-07T07:08:34;19.40;99.90
8095;DHT22;4090;49.270;8.696;2023-05-07T07:11:16;19.50;99.90
8095;DHT22;4090;49.270;8.696;2023-05-07T07:13:58;19.50;99.90
8095;DHT22;4090;49.270;8.696;2023-05-07T07:16:40;19.60;99.90
8095;DHT22;4090;49.270;8.696;2023-05-07T07:19:22;19.60;99.90
8095;DHT22;4090;49.270;8.696;2023-05-07T07:22:08;19.60;99.90
8095;DHT22;4090;49.270;8.696;2023-05-07T07:24:50;19.60;99.90
8095;DHT22;4090;49.270;8.696;2023-05-07T07:27:32;19.70;99.90
8095;DHT22;4090;49.270;8.696;2023-05-07T07:30:15;19.70;99.90
8095;DHT22;4090;49.270;8.696;2023-05-07T07:33:00;19.70;99.90
8095;DHT22;4090;49.270;8.696;2023-05-07T07:35:45;19.70;99.90
8095;DHT22;4090;49.270;8.696;2023-05-07T07:38:28;19.80;99.90
8095;DHT22;4090;49.270;8.696;2023-05-07T07:41:10;19.80;99.90
8095;DHT22;4090;49.270;8.696;2023-05-07T07:43:52;19.90;99.90
8095;DHT22;4090;49.270;8.696;2023-05-07T07:46:35;19.90;99.90
8095;DHT22;4090;49.270;8.696;2023-05-07T07:49:17;19.90;99.90
8095;DHT22;4090;49.270;8.696;2023-05-07T07:51:59;20.00;99.90
8095;DHT22;4090;49.270;8.696;2023-05-07T07:54:43;20.00;99.90
8095;DHT22;4090;49.270;8.696;2023-05-07T07:57:24;20.00;99.90
8095;DHT22;4090;49.270;8.696;2023-05-07T08:00:07;20.00;99.90
8095;DHT22;4090;49.270;8.696;2023-05-07T08:02:57;20.00;99.90
8095;DHT22;4090;49.270;8.696;2023-05-07T08:05:43;20.10;99.90
8095;DHT22;4090;49.270;8.696;2023-05-07T08:08:25;20.10;99.90
8095;DHT22;4090;49.270;8.696;2023-05-07T08:11:10;20.10;99.90
8095;DHT22;4090;49.270;8.696;2023-05-07T08:13:52;20.20;99.90
8095;DHT22;4090;49.270;8.696;2023-05-07T08:16:34;20.20;99.90
8095;DHT22;4090;49.270;8.696;2023-05-07T08:19:16;20.20;99.90
8095;DHT22;4090;49.270;8.696;2023-05-07T08:21:59;20.30;99.90
8095;DHT22;4090;49.270;8.696;2023-05-07T08:24:41;20.30;99.90
8095;DHT22;4090;49.270;8.696;2023-05-07T08:27:25;20.40;99.90
8095;DHT22;4090;49.270;8.696;2023-05-07T08:30:07;20.40;99.90
8095;DHT22;4090;49.270;8.696;2023-05-07T08:32:50;20.50;99.90
8095;DHT22;4090;49.270;8.696;2023-05-07T08:35:31;20.50;99.90
8095;DHT22;4090;49.270;8.696;2023-05-07T08:38:13;20.50;99.90
8095;DHT22;4090;49.270;8.696;2023-05-07T08:40:56;20.60;99.90
8095;DHT22;4090;49.270;8.696;2023-05-07T08:43:40;20.60;99.90
8095;DHT22;4090;49.270;8.696;2023-05-07T08:46:22;20.70;99.90
8095;DHT22;4090;49.270;8.696;2023-05-07T08:49:08;20.70;99.90
8095;DHT22;4090;49.270;8.696;2023-05-07T08:51:51;20.80;99.90
8095;DHT22;4090;49.270;8.696;2023-05-07T08:54:33;20.90;99.90
8095;DHT22;4090;49.270;8.696;2023-05-07T08:57:16;21.00;99.90
8095;DHT22;4090;49.270;8.696;2023-05-07T09:00:02;21.00;99.90
8095;DHT22;4090;49.270;8.696;2023-05-07T09:02:45;21.00;99.90
8095;DHT22;4090;49.270;8.696;2023-05-07T09:05:27;21.10;99.90
8095;DHT22;4090;49.270;8.696;2023-05-07T09:08:09;21.10;99.90
8095;DHT22;4090;49.270;8.696;2023-05-07T09:10:52;21.20;99.90
8095;DHT22;4090;49.270;8.696;2023-05-07T09:13:34;21.30;99.90
8095;DHT22;4090;49.270;8.696;2023-05-07T09:16:19;21.30;99.90
8095;DHT22;4090;49.270;8.696;2023-05-07T09:19:02;21.30;99.90
8095;DHT22;4090;49.270;8.696;2023-05-07T09:21:44;21.40;99.90
8095;DHT22;4090;49.270;8.696;2023-05-07T09:24:27;21.50;99.90
8095;DHT22;4090;49.270;8.696;2023-05-07T09:27:11;21.50;99.90
8095;DHT22;4090;49.270;8.696;2023-05-07T09:29:54;21.60;99.90
8095;DHT22;4090;49.270;8.696;2023-05-07T09:32:38;21.60;99.90
8095;DHT22;4090;49.270;8.696;2023-05-07T09:35:20;21.70;99.90
8095;DHT22;4090;49.270;8.696;2023-05-07T09:38:09;21.70;99.90
8095;DHT22;4090;49.270;8.696;2023-05-07T09:41:01;21.80;99.90
8095;DHT22;4090;49.270;8.696;2023-05-07T09:43:43;21.90;99.90
8095;DHT22;4090;49.270;8.696;2023-05-07T09:46:29;21.90;99.90
8095;DHT22;4090;49.270;8.696;2023-05-07T09:49:16;22.00;99.90
8095;DHT22;4090;49.270;8.696;2023-05-07T09:52:01;22.10;99.90
8095;DHT22;4090;49.270;8.696;2023-05-07T09:54:47;22.20;99.90
8095;DHT22;4090;49.270;8.696;2023-05-07T09:57:31;22.30;99.90
8095;DHT22;4090;49.270;8.696;2023-05-07T10:00:18;22.30;99.90
8095;DHT22;4090;49.270;8.696;2023-05-07T10:03:02;22.40;99.90
8095;DHT22;4090;49.270;8.696;2023-05-07T10:05:56;22.50;99.90
8095;DHT22;4090;49.270;8.696;2023-05-07T10:08:39;22.50;99.90
8095;DHT22;4090;49.270;8.696;2023-05-07T10:11:22;22.60;99.90
8095;DHT22;4090;49.270;8.696;2023-05-07T10:14:04;22.60;99.90
8095;DHT22;4090;49.270;8.696;2023-05-07T10:16:47;22.70;99.90
8095;DHT22;4090;49.270;8.696;2023-05-07T10:19:31;22.80;99.90
8095;DHT22;4090;49.270;8.696;2023-05-07T10:22:15;22.80;99.90
8095;DHT22;4090;49.270;8.696;2023-05-07T10:25:00;22.80;99.90
8095;DHT22;4090;49.270;8.696;2023-05-07T10:27:44;22.80;99.90
8095;DHT22;4090;49.270;8.696;2023-05-07T10:30:35;22.90;99.90
8095;DHT22;4090;49.270;8.696;2023-05-07T10:33:22;22.90;99.90
8095;DHT22;4090;49.270;8.696;2023-05-07T10:36:05;23.00;99.90
8095;DHT22;4090;49.270;8.696;2023-05-07T10:38:50;23.10;99.90
8095;DHT22;4090;49.270;8.696;2023-05-07T10:41:31;23.10;99.90
8095;DHT22;4090;49.270;8.696;2023-05-07T10:44:24;23.20;99.90
8095;DHT22;4090;49.270;8.696;2023-05-07T10:47:07;23.20;99.90
8095;DHT22;4090;49.270;8.696;2023-05-07T11:02:00;23.70;99.80
8095;DHT22;4090;49.270;8.696;2023-05-07T11:07:53;23.90;98.60
8095;DHT22;4090;49.270;8.696;2023-05-07T11:10:47;24.00;98.10
8095;DHT22;4090;49.270;8.696;2023-05-07T11:13:42;24.30;97.10
8095;DHT22;4090;49.270;8.696;2023-05-07T11:16:26;24.40;97.10
8095;DHT22;4090;49.270;8.696;2023-05-07T11:19:18;24.50;97.10
8095;DHT22;4090;49.270;8.696;2023-05-07T11:22:36;24.70;96.80
8095;DHT22;4090;49.270;8.696;2023-05-07T11:25:40;24.80;96.40
8095;DHT22;4090;49.270;8.696;2023-05-07T11:28:30;24.80;96.30
8095;DHT22;4090;49.270;8.696;2023-05-07T11:31:20;24.90;95.00
8095;DHT22;4090;49.270;8.696;2023-05-07T11:34:02;25.00;94.70
8095;DHT22;4090;49.270;8.696;2023-05-07T11:36:45;25.10;94.50
8095;DHT22;4090;49.270;8.696;2023-05-07T11:39:32;25.20;94.20
8095;DHT22;4090;49.270;8.696;2023-05-07T11:42:25;25.30;94.50
8095;DHT22;4090;49.270;8.696;2023-05-07T11:45:07;25.40;94.50
8095;DHT22;4090;49.270;8.696;2023-05-07T11:47:49;25.50;93.50
8095;DHT22;4090;49.270;8.696;2023-05-07T11:50:31;25.70;93.10
8095;DHT22;4090;49.270;8.696;2023-05-07T11:53:14;25.80;92.50
8095;DHT22;4090;49.270;8.696;2023-05-07T11:55:57;26.00;91.50
8095;DHT22;4090;49.270;8.696;2023-05-07T11:58:39;26.10;91.10
8095;DHT22;4090;49.270;8.696;2023-05-07T12:01:21;26.20;91.30
8095;DHT22;4090;49.270;8.696;2023-05-07T12:04:03;26.30;91.40
8095;DHT22;4090;49.270;8.696;2023-05-07T12:06:45;26.40;90.90
8095;DHT22;4090;49.270;8.696;2023-05-07T12:09:28;26.60;90.40
8095;DHT22;4090;49.270;8.696;2023-05-07T12:12:10;26.60;90.70
8095;DHT22;4090;49.270;8.696;2023-05-07T12:14:52;26.70;90.20
8095;DHT22;4090;49.270;8.696;2023-05-07T12:17:34;26.80;90.00
8095;DHT22;4090;49.270;8.696;2023-05-07T12:20:16;26.90;87.90
8095;DHT22;4090;49.270;8.696;2023-05-07T12:22:58;26.90;87.90
8095;DHT22;4090;49.270;8.696;2023-05-07T12:25:41;26.90;89.10
8095;DHT22;4090;49.270;8.696;2023-05-07T12:28:27;27.00;89.50
8095;DHT22;4090;49.270;8.696;2023-05-07T12:31:08;26.90;90.00
8095;DHT22;4090;49.270;8.696;2023-05-07T12:33:50;27.00;90.10
8095;DHT22;4090;49.270;8.696;2023-05-07T12:36:38;27.00;89.70
8095;DHT22;4090;49.270;8.696;2023-05-07T12:39:20;27.10;88.70
8095;DHT22;4090;49.270;8.696;2023-05-07T12:42:03;27.10;87.00
8095;DHT22;4090;49.270;8.696;2023-05-07T12:44:45;27.20;87.40
8095;DHT22;4090;49.270;8.696;2023-05-07T12:47:27;27.10;87.80
8095;DHT22;4090;49.270;8.696;2023-05-07T12:50:09;27.10;88.60
8095;DHT22;4090;49.270;8.696;2023-05-07T12:52:51;27.10;90.00
8095;DHT22;4090;49.270;8.696;2023-05-07T12:55:40;27.00;89.30
8095;DHT22;4090;49.270;8.696;2023-05-07T12:58:24;27.00;89.90
8095;DHT22;4090;49.270;8.696;2023-05-07T13:01:07;27.00;89.00
8095;DHT22;4090;49.270;8.696;2023-05-07T13:03:50;27.00;88.60
8095;DHT22;4090;49.270;8.696;2023-05-07T13:06:31;26.90;87.50
8095;DHT22;4090;49.270;8.696;2023-05-07T13:09:13;26.90;88.20
8095;DHT22;4090;49.270;8.696;2023-05-07T13:11:55;26.80;88.70
8095;DHT22;4090;49.270;8.696;2023-05-07T13:14:38;26.80;88.60
8095;DHT22;4090;49.270;8.696;2023-05-07T13:17:19;26.80;88.80
8095;DHT22;4090;49.270;8.696;2023-05-07T13:20:01;26.70;89.40
8095;DHT22;4090;49.270;8.696;2023-05-07T13:22:44;26.70;89.90
8095;DHT22;4090;49.270;8.696;2023-05-07T13:25:26;26.70;89.80
8095;DHT22;4090;49.270;8.696;2023-05-07T13:28:07;26.70;89.50
8095;DHT22;4090;49.270;8.696;2023-05-07T13:30:51;26.60;88.50
8095;DHT22;4090;49.270;8.696;2023-05-07T13:33:32;26.60;88.00
8095;DHT22;4090;49.270;8.696;2023-05-07T13:36:14;26.60;88.60
8095;DHT22;4090;49.270;8.696;2023-05-07T13:38:56;26.60;88.10
8095;DHT22;4090;49.270;8.696;2023-05-07T13:41:39;26.60;87.50
8095;DHT22;4090;49.270;8.696;2023-05-07T13:44:21;26.60;86.90
8095;DHT22;4090;49.270;8.696;2023-05-07T13:47:04;26.60;87.80
8095;DHT22;4090;49.270;8.696;2023-05-07T13:49:46;26.60;88.50
8095;DHT22;4090;49.270;8.696;2023-05-07T13:52:29;26.60;89.00
8095;DHT22;4090;49.270;8.696;2023-05-07T13:55:11;26.50;89.50
8095;DHT22;4090;49.270;8.696;2023-05-07T13:57:56;26.50;90.20
8095;DHT22;4090;49.270;8.696;2023-05-07T14:00:38;26.40;90.00
8095;DHT22;4090;49.270;8.696;2023-05-07T14:03:22;26.40;90.20
8095;DHT22;4090;49.270;8.696;2023-05-07T14:06:03;26.30;88.00
8095;DHT22;4090;49.270;8.696;2023-05-07T14:08:45;26.10;87.10
8095;DHT22;4090;49.270;8.696;2023-05-07T14:11:27;25.50;88.70
8095;DHT22;4090;49.270;8.696;2023-05-07T14:14:08;25.10;96.50
8095;DHT22;4090;49.270;8.696;2023-05-07T14:16:52;24.40;99.90
8095;DHT22;4090;49.270;8.696;2023-05-07T14:19:35;23.50;99.90
8095;DHT22;4090;49.270;8.696;2023-05-07T14:22:16;22.40;99.90
8095;DHT22;4090;49.270;8.696;2023-05-07T14:24:58;21.40;99.90
8095;DHT22;4090;49.270;8.696;2023-05-07T14:27:40;20.70;99.90
8095;DHT22;4090;49.270;8.696;2023-05-07T14:30:22;20.10;99.90
8095;DHT22;4090;49.270;8.696;2023-05-07T14:33:04;19.70;99.90
8095;DHT22;4090;49.270;8.696;2023-05-07T14:35:47;19.40;99.90
8095;DHT22;4090;49.270;8.696;2023-05-07T14:38:30;19.10;99.90
8095;DHT22;4090;49.270;8.696;2023-05-07T14:41:13;18.90;99.90
8095;DHT22;4090;49.270;8.696;2023-05-07T14:43:56;18.80;99.90
8095;DHT22;4090;49.270;8.696;2023-05-07T14:46:39;18.60;99.90
8095;DHT22;4090;49.270;8.696;2023-05-07T14:49:21;18.40;99.90
8095;DHT22;4090;49.270;8.696;2023-05-07T14:52:04;18.30;99.90
8095;DHT22;4090;49.270;8.696;2023-05-07T14:54:46;18.20;99.90
8095;DHT22;4090;49.270;8.696;2023-05-07T14:57:28;18.00;99.90
8095;DHT22;4090;49.270;8.696;2023-05-07T15:00:10;18.00;99.90
8095;DHT22;4090;49.270;8.696;2023-05-07T15:02:52;18.00;99.90
8095;DHT22;4090;49.270;8.696;2023-05-07T15:05:33;18.00;99.90
8095;DHT22;4090;49.270;8.696;2023-05-07T15:08:16;18.00;99.90
8095;DHT22;4090;49.270;8.696;2023-05-07T15:10:58;18.00;99.90
8095;DHT22;4090;49.270;8.696;2023-05-07T15:13:41;18.00;99.90
8095;DHT22;4090;49.270;8.696;2023-05-07T15:16:23;18.00;99.90
8095;DHT22;4090;49.270;8.696;2023-05-07T15:19:04;18.00;99.90
8095;DHT22;4090;49.270;8.696;2023-05-07T15:21:46;18.00;99.90
8095;DHT22;4090;49.270;8.696;2023-05-07T15:24:29;18.10;99.90
8095;DHT22;4090;49.270;8.696;2023-05-07T15:27:11;18.20;99.90
8095;DHT22;4090;49.270;8.696;2023-05-07T15:29:53;18.30;99.90
8095;DHT22;4090;49.270;8.696;2023-05-07T15:32:35;18.40;99.90
8095;DHT22;4090;49.270;8.696;2023-05-07T15:35:16;18.40;99.90
8095;DHT22;4090;49.270;8.696;2023-05-07T15:38:02;18.50;99.90
8095;DHT22;4090;49.270;8.696;2023-05-07T15:40:45;18.50;99.90
8095;DHT22;4090;49.270;8.696;2023-05-07T15:43:27;18.60;99.90
8095;DHT22;4090;49.270;8.696;2023-05-07T15:46:09;18.60;99.90
8095;DHT22;4090;49.270;8.696;2023-05-07T15:48:51;18.70;99.90
8095;DHT22;4090;49.270;8.696;2023-05-07T15:51:33;18.60;99.90
8095;DHT22;4090;49.270;8.696;2023-05-07T15:54:16;18.60;99.90
8095;DHT22;4090;49.270;8.696;2023-05-07T15:57:01;18.70;99.90
8095;DHT22;4090;49.270;8.696;2023-05-07T15:59:43;18.70;99.90
8095;DHT22;4090;49.270;8.696;2023-05-07T16:02:25;18.70;99.90
8095;DHT22;4090;49.270;8.696;2023-05-07T16:05:07;18.70;99.90
8095;DHT22;4090;49.270;8.696;2023-05-07T16:07:50;18.70;99.90
8095;DHT22;4090;49.270;8.696;2023-05-07T16:10:32;18.70;99.90
8095;DHT22;4090;49.270;8.696;2023-05-07T16:13:15;18.80;99.90
8095;DHT22;4090;49.270;8.696;2023-05-07T16:15:58;18.80;99.90
8095;DHT22;4090;49.270;8.696;2023-05-07T16:18:40;18.90;99.90
8095;DHT22;4090;49.270;8.696;2023-05-07T16:21:22;18.90;99.90
8095;DHT22;4090;49.270;8.696;2023-05-07T16:24:04;18.90;99.90
8095;DHT22;4090;49.270;8.696;2023-05-07T16:26:46;18.90;99.90
8095;DHT22;4090;49.270;8.696;2023-05-07T16:29:29;18.90;99.90
8095;DHT22;4090;49.270;8.696;2023-05-07T16:32:11;19.00;99.90
8095;DHT22;4090;49.270;8.696;2023-05-07T16:34:53;19.00;99.90
8095;DHT22;4090;49.270;8.696;2023-05-07T16:37:35;19.00;99.90
8095;DHT22;4090;49.270;8.696;2023-05-07T16:40:16;19.10;99.90
8095;DHT22;4090;49.270;8.696;2023-05-07T16:42:59;19.10;99.90
8095;DHT22;4090;49.270;8.696;2023-05-07T16:45:42;19.10;99.90
8095;DHT22;4090;49.270;8.696;2023-05-07T16:48:24;19.10;99.90
8095;DHT22;4090;49.270;8.696;2023-05-07T16:51:06;19.10;99.90
8095;DHT22;4090;49.270;8.696;2023-05-07T16:53:48;19.10;99.90
8095;DHT22;4090;49.270;8.696;2023-05-07T16:56:29;19.10;99.90
8095;DHT22;4090;49.270;8.696;2023-05-07T16:59:11;19.20;99.90
8095;DHT22;4090;49.270;8.696;2023-05-07T17:01:54;19.20;99.90
8095;DHT22;4090;49.270;8.696;2023-05-07T17:04:36;19.20;99.90
8095;DHT22;4090;49.270;8.696;2023-05-07T17:07:18;19.00;99.90
8095;DHT22;4090;49.270;8.696;2023-05-07T17:10:00;19.20;99.90
8095;DHT22;4090;49.270;8.696;2023-05-07T17:12:42;19.10;99.90
8095;DHT22;4090;49.270;8.696;2023-05-07T17:15:24;19.20;99.90
8095;DHT22;4090;49.270;8.696;2023-05-07T17:18:07;19.20;99.90
8095;DHT22;4090;49.270;8.696;2023-05-07T17:20:49;19.20;99.90
8095;DHT22;4090;49.270;8.696;2023-05-07T17:23:31;19.20;99.90
8095;DHT22;4090;49.270;8.696;2023-05-07T17:26:13;19.20;99.90
8095;DHT22;4090;49.270;8.696;2023-05-07T17:28:54;19.20;99.90
8095;DHT22;4090;49.270;8.696;2023-05-07T17:31:36;19.20;99.90
8095;DHT22;4090;49.270;8.696;2023-05-07T17:34:19;19.20;99.90
8095;DHT22;4090;49.270;8.696;2023-05-07T17:37:01;19.20;99.90
8095;DHT22;4090;49.270;8.696;2023-05-07T17:39:43;19.30;99.90
8095;DHT22;4090;49.270;8.696;2023-05-07T17:42:25;19.20;99.90
8095;DHT22;4090;49.270;8.696;2023-05-07T17:45:07;19.30;99.90
8095;DHT22;4090;49.270;8.696;2023-05-07T17:47:49;19.30;99.90
8095;DHT22;4090;49.270;8.696;2023-05-07T17:50:32;19.30;99.90
8095;DHT22;4090;49.270;8.696;2023-05-07T17:53:14;19.30;99.90
8095;DHT22;4090;49.270;8.696;2023-05-07T17:55:56;19.40;99.90
8095;DHT22;4090;49.270;8.696;2023-05-07T17:58:37;19.30;99.90
8095;DHT22;4090;49.270;8.696;2023-05-07T18:01:19;19.30;99.90